Time;durP1;ratioP1;P1;durP2;ratioP2;P2;SDS_P1;SDS_P2;PMS_P1;PMS_P2;Temp;Humidity;BMP_temperature;BMP_pressure;BME280_temperature;BME280_humidity;BME280_pressure;Samples;Min_cycle;Max_cycle;Signal;HPM_P1;HPM_P2
2023/11/29 00:00:03;;;;;;;10.10;6.97;;;;;;;2.05;100.00;99765.66;4971612;28;20109;-89
2023/11/29 00:02:28;;;;;;;9.75;6.65;;;;;;;2.01;100.00;99772.56;4972800;28;20026;-88
2023/11/29 00:04:54;;;;;;;8.50;6.43;;;;;;;1.92;100.00;99772.88;4971169;28;20046;-88
2023/11/29 00:07:19;;;;;;;11.35;7.10;;;;;;;2.03;100.00;99770.81;4972852;28;20065;-88
2023/11/29 00:09:46;;;;;;;10.35;7.05;;;;;;;2.16;100.00;99765.31;4975768;28;20050;-89
2023/11/29 00:12:12;;;;;;;10.13;6.45;;;;;;;2.20;100.00;99757.53;4976597;28;20033;-88
2023/11/29 00:14:37;;;;;;;11.73;6.45;;;;;;;2.24;100.00;99755.69;4976471;28;20473;-89
2023/11/29 00:17:04;;;;;;;9.40;6.30;;;;;;;2.27;100.00;99746.25;4976553;28;20035;-88
2023/11/29 00:19:29;;;;;;;8.38;6.05;;;;;;;2.33;100.00;99750.28;4976589;28;20035;-88
2023/11/29 00:21:54;;;;;;;8.82;5.95;;;;;;;2.35;100.00;99743.44;4976218;28;20086;-89
2023/11/29 00:24:20;;;;;;;8.70;5.57;;;;;;;2.36;100.00;99750.19;4976362;28;20034;-89
2023/11/29 00:26:45;;;;;;;9.68;6.40;;;;;;;2.37;100.00;99741.66;4976536;28;20031;-88
2023/11/29 00:29:10;;;;;;;11.90;6.35;;;;;;;2.31;100.00;99739.31;4976418;28;20023;-89
2023/11/29 00:31:36;;;;;;;9.25;6.30;;;;;;;2.20;100.00;99729.53;4976203;28;20023;-89
2023/11/29 00:34:01;;;;;;;10.10;6.53;;;;;;;2.21;100.00;99732.91;4974938;28;20117;-88
2023/11/29 00:36:26;;;;;;;10.32;6.55;;;;;;;2.05;100.00;99735.97;4976175;28;20039;-89
2023/11/29 00:38:52;;;;;;;8.05;5.82;;;;;;;2.14;100.00;99725.44;4976434;28;20119;-89
2023/11/29 00:41:17;;;;;;;10.35;6.25;;;;;;;2.19;100.00;99730.38;4976056;28;20106;-88
2023/11/29 00:43:42;;;;;;;9.57;6.40;;;;;;;2.20;100.00;99724.44;4976132;28;20102;-89
2023/11/29 00:46:08;;;;;;;8.35;6.03;;;;;;;2.16;100.00;99717.78;4976095;28;20035;-88
2023/11/29 00:48:33;;;;;;;8.55;6.68;;;;;;;2.16;100.00;99722.03;4975958;28;20034;-89
2023/11/29 00:50:58;;;;;;;9.30;6.75;;;;;;;2.11;100.00;99712.84;4976138;28;20019;-88
2023/11/29 00:53:24;;;;;;;10.35;6.05;;;;;;;2.09;100.00;99712.06;4975983;28;20093;-89
2023/11/29 00:55:49;;;;;;;8.82;6.05;;;;;;;2.09;100.00;99709.50;4976088;28;20073;-88
2023/11/29 00:58:15;;;;;;;8.43;5.53;;;;;;;2.15;100.00;99705.94;4975956;28;20035;-88
2023/11/29 01:00:40;;;;;;;7.40;5.57;;;;;;;2.11;100.00;99702.66;4976208;28;20389;-88
2023/11/29 01:03:06;;;;;;;8.48;5.85;;;;;;;2.06;100.00;99696.06;4975832;28;20090;-88
2023/11/29 01:05:31;;;;;;;8.65;6.03;;;;;;;2.06;100.00;99686.72;4976134;28;20031;-88
2023/11/29 01:07:57;;;;;;;7.05;5.22;;;;;;;1.99;100.00;99692.91;4975529;28;20022;-88
2023/11/29 01:10:22;;;;;;;7.63;5.57;;;;;;;1.99;100.00;99692.91;4975693;28;20434;-88
2023/11/29 01:12:48;;;;;;;7.53;4.97;;;;;;;1.95;100.00;99687.97;4975544;28;20489;-88
2023/11/29 01:15:13;;;;;;;8.43;5.93;;;;;;;1.89;100.00;99682.19;4975463;28;20101;-88
2023/11/29 01:17:39;;;;;;;6.60;4.63;;;;;;;1.85;100.00;99674.72;4975492;28;20481;-88
2023/11/29 01:20:05;;;;;;;7.97;4.88;;;;;;;1.81;100.00;99671.47;4973541;28;20029;-88
2023/11/29 01:22:30;;;;;;;7.38;5.40;;;;;;;1.89;100.00;99663.56;4975172;28;20382;-88
2023/11/29 01:24:56;;;;;;;11.02;6.05;;;;;;;2.02;100.00;99663.97;4975290;28;20033;-89
2023/11/29 01:27:21;;;;;;;8.70;5.32;;;;;;;1.83;100.00;99673.94;4975499;28;20489;-88
2023/11/29 01:29:46;;;;;;;7.93;5.65;;;;;;;1.90;100.00;99665.22;4975330;28;20420;-88
2023/11/29 01:32:12;;;;;;;8.52;5.45;;;;;;;1.82;100.00;99657.84;4975141;28;20442;-88
2023/11/29 01:34:41;;;;;;;7.93;5.20;;;;;;;1.87;100.00;99661.06;4975065;28;20110;-88
2023/11/29 01:37:06;;;;;;;7.60;4.72;;;;;;;1.85;100.00;99664.53;4973872;28;20019;-88
2023/11/29 01:39:32;;;;;;;7.20;5.07;;;;;;;1.74;100.00;99659.00;4975180;28;20102;-89
2023/11/29 01:41:57;;;;;;;7.22;5.25;;;;;;;1.66;100.00;99662.63;4975253;28;20034;-88
2023/11/29 01:44:22;;;;;;;7.32;4.60;;;;;;;1.65;100.00;99666.03;4975084;28;20023;-88
2023/11/29 01:46:48;;;;;;;7.20;5.03;;;;;;;1.70;100.00;99669.25;4975054;28;20031;-88
2023/11/29 01:49:16;;;;;;;9.32;5.03;;;;;;;1.77;100.00;99664.81;4974831;28;20023;-88
2023/11/29 01:51:42;;;;;;;7.45;5.10;;;;;;;1.71;100.00;99668.41;4974677;28;20027;-89
2023/11/29 01:54:07;;;;;;;6.95;5.25;;;;;;;1.65;100.00;99660.94;4974641;28;20022;-88
2023/11/29 01:56:32;;;;;;;9.30;5.47;;;;;;;1.63;100.00;99656.81;4974852;28;20027;-88
2023/11/29 01:58:58;;;;;;;8.50;5.30;;;;;;;1.61;100.00;99661.09;4974864;28;20162;-88
2023/11/29 02:01:23;;;;;;;6.57;5.10;;;;;;;1.64;100.00;99664.38;4973667;28;20098;-88
2023/11/29 02:03:49;;;;;;;5.25;4.75;;;;;;;1.64;100.00;99658.47;4973164;28;20031;-89
2023/11/29 02:06:14;;;;;;;7.20;4.78;;;;;;;1.61;100.00;99659.41;4974651;28;20027;-89
2023/11/29 02:08:40;;;;;;;6.75;4.90;;;;;;;1.56;100.00;99656.19;4974813;28;20023;-89
2023/11/29 02:11:05;;;;;;;8.68;4.88;;;;;;;1.54;100.00;99652.00;4974523;28;20492;-89
2023/11/29 02:13:30;;;;;;;6.07;5.03;;;;;;;1.59;100.00;99645.91;4974668;28;20034;-89
2023/11/29 02:15:56;;;;;;;9.98;5.95;;;;;;;1.63;100.00;99650.00;4973141;28;20031;-88
2023/11/29 02:18:22;;;;;;;8.27;6.15;;;;;;;1.73;100.00;99654.78;4973201;28;20034;-88
2023/11/29 02:20:47;;;;;;;7.30;5.18;;;;;;;1.67;100.00;99651.56;4974423;28;20023;-89
2023/11/29 02:23:27;;;;;;;11.52;6.40;;;;;;;1.91;100.00;99646.53;4974368;28;20027;-89
2023/11/29 02:25:54;;;;;;;11.60;5.95;;;;;;;1.96;100.00;99639.56;4974321;28;20389;-88
2023/11/29 02:28:19;;;;;;;9.55;6.07;;;;;;;1.95;100.00;99648.06;4974247;28;20042;-89
2023/11/29 02:30:44;;;;;;;11.65;5.85;;;;;;;1.89;100.00;99641.47;4973781;28;20465;-89
2023/11/29 02:33:10;;;;;;;8.20;5.53;;;;;;;1.78;100.00;99640.19;4974094;28;20034;-88
2023/11/29 02:35:35;;;;;;;9.32;6.20;;;;;;;1.74;100.00;99633.56;4974263;28;20547;-88
2023/11/29 02:38:01;;;;;;;10.35;6.65;;;;;;;1.81;100.00;99635.84;4972644;28;20023;-89
2023/11/29 02:40:26;;;;;;;9.00;5.88;;;;;;;1.74;100.00;99631.84;4974036;28;20030;-88
2023/11/29 02:42:51;;;;;;;9.57;6.38;;;;;;;1.90;100.00;99640.63;4974044;28;20019;-88
2023/11/29 02:45:17;;;;;;;7.13;5.28;;;;;;;1.80;100.00;99633.34;4973988;28;20030;-88
2023/11/29 02:47:42;;;;;;;7.90;5.75;;;;;;;1.71;100.00;99625.16;4973954;28;20029;-88
2023/11/29 02:50:08;;;;;;;7.68;5.68;;;;;;;1.63;100.00;99622.00;4974119;28;20029;-88
2023/11/29 02:52:33;;;;;;;8.18;6.22;;;;;;;1.75;100.00;99625.03;4972562;28;20049;-88
2023/11/29 02:54:59;;;;;;;8.88;6.05;;;;;;;1.70;100.00;99626.00;4974305;28;20057;-88
2023/11/29 02:57:24;;;;;;;7.88;6.15;;;;;;;1.61;100.00;99623.81;4973820;28;20019;-89
2023/11/29 02:59:50;;;;;;;9.45;6.32;;;;;;;1.56;100.00;99619.72;4973773;28;20041;-88
2023/11/29 03:02:15;;;;;;;13.48;6.28;;;;;;;1.65;100.00;99627.88;4973438;28;20034;-88
2023/11/29 03:04:40;;;;;;;10.40;6.60;;;;;;;1.54;100.00;99622.34;4973567;28;20081;-88
2023/11/29 03:07:06;;;;;;;9.90;6.55;;;;;;;1.48;100.00;99617.44;4973694;28;20101;-88
2023/11/29 03:09:31;;;;;;;9.82;5.88;;;;;;;1.46;100.00;99614.13;4973803;28;20034;-89
2023/11/29 03:11:57;;;;;;;10.38;5.70;;;;;;;1.45;100.00;99622.66;4973298;28;20066;-88
2023/11/29 03:14:22;;;;;;;8.20;6.25;;;;;;;1.39;100.00;99610.13;4973334;28;20038;-88
2023/11/29 03:16:47;;;;;;;9.68;5.93;;;;;;;1.35;100.00;99608.59;4973353;28;20057;-88
2023/11/29 03:19:13;;;;;;;8.43;5.75;;;;;;;1.33;100.00;99607.81;4973460;28;20111;-88
2023/11/29 03:21:38;;;;;;;6.50;5.10;;;;;;;1.26;100.00;99610.53;4973161;28;20125;-88
2023/11/29 03:24:04;;;;;;;7.00;5.32;;;;;;;1.24;100.00;99607.22;4973143;28;20027;-88
2023/11/29 03:26:29;;;;;;;13.77;6.30;;;;;;;1.15;100.00;99597.34;4973401;28;20027;-88
2023/11/29 03:28:54;;;;;;;6.53;5.07;;;;;;;1.17;100.00;99605.75;4973262;28;20113;-87
2023/11/29 03:31:20;;;;;;;7.68;5.40;;;;;;;1.16;100.00;99606.63;4973181;28;20030;-88
2023/11/29 03:33:45;;;;;;;8.13;5.68;;;;;;;1.12;100.00;99599.97;4972972;28;20035;-89
2023/11/29 03:36:10;;;;;;;7.22;5.38;;;;;;;1.11;100.00;99621.19;4973022;28;20027;-88
2023/11/29 03:38:36;;;;;;;7.38;5.25;;;;;;;1.03;100.00;99607.91;4973224;28;20042;-89
2023/11/29 03:41:01;;;;;;;9.20;5.45;;;;;;;0.98;100.00;99608.06;4973258;28;20105;-89
2023/11/29 03:43:26;;;;;;;7.65;5.40;;;;;;;0.97;100.00;99601.28;4971729;28;20502;-88
2023/11/29 03:45:53;;;;;;;10.30;5.97;;;;;;;1.02;100.00;99596.06;4971489;28;20062;-88
2023/11/29 03:48:19;;;;;;;8.13;6.05;;;;;;;0.99;100.00;99602.09;4972950;28;20027;-88
2023/11/29 03:50:44;;;;;;;8.70;6.07;;;;;;;0.94;100.00;99581.06;4972961;28;20049;-88
2023/11/29 03:53:10;;;;;;;9.50;5.85;;;;;;;0.96;100.00;99584.41;4972984;28;20109;-88
2023/11/29 03:55:35;;;;;;;9.27;6.22;;;;;;;0.93;100.00;99583.69;4972817;28;20027;-88
2023/11/29 03:58:01;;;;;;;7.85;5.18;;;;;;;0.96;100.00;99574.25;4972732;28;20030;-88
2023/11/29 04:00:26;;;;;;;8.27;5.55;;;;;;;0.92;100.00;99576.91;4972723;28;20030;-88
2023/11/29 04:02:52;;;;;;;7.20;5.05;;;;;;;0.91;100.00;99575.28;4972825;28;20034;-88
2023/11/29 04:05:17;;;;;;;8.30;5.93;;;;;;;0.66;100.00;99576.03;4972665;28;20502;-88
2023/11/29 04:07:42;;;;;;;8.05;5.88;;;;;;;0.80;100.00;99565.44;4972668;28;20038;-88
2023/11/29 04:10:08;;;;;;;10.15;5.45;;;;;;;0.83;100.00;99575.53;4972662;28;20031;-88
2023/11/29 04:12:33;;;;;;;8.00;5.45;;;;;;;0.80;100.00;99571.34;4973008;28;20101;-88
2023/11/29 04:14:59;;;;;;;7.93;6.20;;;;;;;0.80;100.00;99573.88;4972711;28;20366;-88
2023/11/29 04:17:24;;;;;;;7.45;5.50;;;;;;;0.81;100.00;99560.31;4972728;28;20496;-88
2023/11/29 04:19:49;;;;;;;11.88;5.70;;;;;;;0.82;100.00;99566.22;4972679;28;20471;-88
2023/11/29 04:22:15;;;;;;;9.98;6.22;;;;;;;0.85;100.00;99561.88;4972711;28;20045;-88
2023/11/29 04:24:40;;;;;;;8.70;5.93;;;;;;;0.87;100.00;99553.38;4972490;28;20027;-88
2023/11/29 04:27:06;;;;;;;12.02;6.43;;;;;;;0.88;100.00;99555.03;4972797;28;20277;-88
2023/11/29 04:29:31;;;;;;;9.15;6.45;;;;;;;0.80;100.00;99553.56;4972691;28;20497;-88
2023/11/29 04:31:56;;;;;;;9.50;6.57;;;;;;;0.53;100.00;99565.41;4972718;28;20495;-88
2023/11/29 04:34:22;;;;;;;11.23;6.97;;;;;;;0.64;100.00;99552.41;4971306;28;20034;-88
2023/11/29 04:36:47;;;;;;;13.68;7.53;;;;;;;0.73;100.00;99552.13;4972671;28;20034;-88
2023/11/29 04:39:13;;;;;;;11.00;7.30;;;;;;;0.79;100.00;99541.75;4971545;28;20489;-88
2023/11/29 04:41:41;;;;;;;13.48;8.00;;;;;;;0.83;100.00;99542.50;4972632;28;20038;-88
2023/11/29 04:44:08;;;;;;;11.88;7.72;;;;;;;0.81;100.00;99540.00;4972639;28;20038;-88
2023/11/29 04:46:34;;;;;;;10.73;6.93;;;;;;;0.81;100.00;99544.25;4972624;28;20033;-88
2023/11/29 04:48:59;;;;;;;11.57;7.97;;;;;;;0.79;100.00;99536.66;4972489;28;20384;-88
2023/11/29 04:51:26;;;;;;;14.05;8.10;;;;;;;0.92;100.00;99537.09;4972680;28;20150;-88
2023/11/29 04:53:51;;;;;;;9.95;7.10;;;;;;;0.83;100.00;99533.16;4972500;28;20038;-88
2023/11/29 04:56:18;;;;;;;9.65;7.13;;;;;;;0.78;100.00;99529.09;4975829;28;20031;-88
2023/11/29 04:58:44;;;;;;;11.15;6.75;;;;;;;0.70;100.00;99529.34;4976064;28;20355;-88
2023/11/29 05:01:10;;;;;;;14.00;7.53;;;;;;;0.73;100.00;99529.25;4975979;28;20034;-88
2023/11/29 05:03:39;;;;;;;15.70;8.77;;;;;;;0.74;100.00;99528.38;4975951;28;20093;-88
2023/11/29 05:06:06;;;;;;;13.02;7.32;;;;;;;0.70;100.00;99524.25;4975858;28;20576;-88
2023/11/29 05:08:32;;;;;;;10.73;7.32;;;;;;;0.73;100.00;99528.41;4975731;28;20050;-88
2023/11/29 05:11:00;;;;;;;12.02;8.00;;;;;;;0.74;100.00;99530.09;4975864;28;20027;-88
2023/11/29 05:13:25;;;;;;;12.57;8.48;;;;;;;0.71;100.00;99523.38;4974263;28;20504;-88
2023/11/29 05:15:51;;;;;;;13.35;9.00;;;;;;;0.73;100.00;99526.72;4974427;28;20031;-88
2023/11/29 05:18:16;;;;;;;13.30;8.88;;;;;;;0.58;100.00;99519.56;4975482;28;20374;-88
2023/11/29 05:20:42;;;;;;;17.17;9.02;;;;;;;0.53;100.00;99518.88;4975715;28;20052;-88
2023/11/29 05:23:07;;;;;;;15.00;8.82;;;;;;;0.54;100.00;99515.47;4975369;28;20034;-88
2023/11/29 05:25:32;;;;;;;15.88;9.50;;;;;;;0.62;100.00;99516.06;4974233;28;20038;-89
2023/11/29 05:27:58;;;;;;;13.25;8.73;;;;;;;0.60;100.00;99511.00;4975576;28;20470;-88
2023/11/29 05:30:23;;;;;;;14.25;9.18;;;;;;;0.66;100.00;99510.00;4975389;28;20158;-88
2023/11/29 05:32:49;;;;;;;15.20;9.55;;;;;;;0.74;100.00;99512.31;4975147;28;20026;-88
2023/11/29 05:35:14;;;;;;;14.40;9.80;;;;;;;0.71;100.00;99513.25;4973746;28;20034;-88
2023/11/29 05:37:41;;;;;;;15.65;9.00;;;;;;;0.76;100.00;99516.44;4975189;28;20066;-88
2023/11/29 05:40:08;;;;;;;13.80;9.02;;;;;;;0.77;100.00;99514.75;4973771;28;20026;-88
2023/11/29 05:42:34;;;;;;;11.70;8.20;;;;;;;0.76;100.00;99506.28;4973590;28;20033;-88
2023/11/29 05:45:00;;;;;;;11.55;7.68;;;;;;;0.75;100.00;99509.69;4974696;28;20022;-88
2023/11/29 05:47:25;;;;;;;11.38;6.90;;;;;;;0.76;100.00;99511.38;4974960;28;20022;-88
2023/11/29 05:49:50;;;;;;;13.07;8.10;;;;;;;0.77;100.00;99515.56;4974982;28;20105;-88
2023/11/29 05:52:18;;;;;;;14.38;9.18;;;;;;;0.71;100.00;99512.38;4974808;28;20054;-88
2023/11/29 05:54:45;;;;;;;13.15;8.93;;;;;;;0.74;100.00;99508.03;4973557;28;20484;-89
2023/11/29 05:57:11;;;;;;;16.25;9.07;;;;;;;0.74;100.00;99508.03;4973601;28;20050;-88
2023/11/29 05:59:37;;;;;;;23.08;11.85;;;;;;;0.76;100.00;99501.22;4974791;28;20058;-88
2023/11/29 06:02:05;;;;;;;19.48;10.95;;;;;;;0.69;100.00;99504.00;4973357;28;20023;-89
2023/11/29 06:04:33;;;;;;;20.90;10.45;;;;;;;0.71;100.00;99505.63;4973117;28;20437;-88
2023/11/29 06:06:59;;;;;;;15.63;9.50;;;;;;;0.73;100.00;99510.63;4973661;28;20062;-89
2023/11/29 06:09:31;;;;;;;15.48;10.50;;;;;;;0.66;100.00;99514.25;4974620;28;20054;-88
2023/11/29 06:11:59;;;;;;;13.52;9.75;;;;;;;0.65;100.00;99505.78;4974322;28;20565;-88
2023/11/29 06:14:27;;;;;;;15.23;9.00;;;;;;;0.64;100.00;99516.84;4974328;28;20085;-88
2023/11/29 06:16:53;;;;;;;15.57;9.63;;;;;;;0.59;100.00;99518.69;4974441;28;20433;-88
2023/11/29 06:19:20;;;;;;;15.50;10.10;;;;;;;0.57;100.00;99515.38;4973211;28;20022;-89
2023/11/29 06:21:45;;;;;;;15.68;9.15;;;;;;;0.50;100.00;99513.91;4974451;28;20073;-88
2023/11/29 06:24:11;;;;;;;16.48;10.70;;;;;;;0.48;100.00;99511.41;4974016;28;20486;-88
2023/11/29 06:26:38;;;;;;;18.20;10.50;;;;;;;0.49;100.00;99504.59;4974150;28;20023;-88
2023/11/29 06:29:04;;;;;;;15.45;9.20;;;;;;;0.62;100.00;99511.81;4974281;28;20037;-88
2023/11/29 06:31:31;;;;;;;13.40;8.98;;;;;;;0.76;100.00;99506.28;4974232;28;20032;-88
2023/11/29 06:33:56;;;;;;;15.55;8.27;;;;;;;0.63;100.00;99502.47;4974121;28;20107;-88
2023/11/29 06:36:21;;;;;;;13.43;8.57;;;;;;;0.55;100.00;99501.88;4973808;28;20119;-89
2023/11/29 06:38:47;;;;;;;13.10;8.70;;;;;;;0.50;100.00;99496.97;4974080;28;20027;-88
2023/11/29 06:41:12;;;;;;;12.10;8.13;;;;;;;0.57;100.00;99500.13;4974259;28;20046;-88
2023/11/29 06:43:39;;;;;;;9.63;6.50;;;;;;;0.52;100.00;99504.53;4972793;28;20375;-88
2023/11/29 06:46:04;;;;;;;8.50;6.15;;;;;;;0.50;100.00;99502.03;4974058;28;20038;-88
2023/11/29 06:48:31;;;;;;;13.90;7.30;;;;;;;0.50;100.00;99499.50;4973812;28;20027;-88
2023/11/29 06:51:00;;;;;;;14.60;9.10;;;;;;;0.67;100.00;99488.81;4972675;28;20029;-88
2023/11/29 06:53:25;;;;;;;10.85;7.45;;;;;;;0.77;100.00;99489.34;4973731;28;20389;-88
2023/11/29 06:55:51;;;;;;;13.40;7.07;;;;;;;0.79;100.00;99495.19;4973814;28;20026;-88
2023/11/29 06:58:17;;;;;;;12.82;7.80;;;;;;;0.73;100.00;99487.78;4972719;28;20034;-88
2023/11/29 07:00:43;;;;;;;12.10;6.68;;;;;;;0.77;100.00;99492.69;4973835;28;20031;-88
2023/11/29 07:03:09;;;;;;;9.88;6.47;;;;;;;0.76;100.00;99487.69;4973744;28;20027;-88
2023/11/29 07:05:34;;;;;;;9.20;5.90;;;;;;;0.75;100.00;99488.56;4973456;28;20398;-88
2023/11/29 07:08:00;;;;;;;10.85;6.25;;;;;;;0.74;100.00;99485.19;4972286;28;20098;-88
2023/11/29 07:10:26;;;;;;;12.05;6.63;;;;;;;0.80;100.00;99481.63;4973521;28;20029;-88
2023/11/29 07:12:55;;;;;;;8.95;7.15;;;;;;;0.70;100.00;99481.09;4973675;28;20062;-88
2023/11/29 07:15:20;;;;;;;14.02;8.27;;;;;;;0.74;100.00;99482.66;4973331;28;20030;-88
2023/11/29 07:17:46;;;;;;;13.88;7.82;;;;;;;0.81;100.00;99471.41;4973208;28;20034;-88
2023/11/29 07:20:11;;;;;;;12.57;7.38;;;;;;;0.64;100.00;99471.97;4973707;28;20056;-88
2023/11/29 07:22:37;;;;;;;10.98;6.65;;;;;;;0.62;100.00;99467.81;4973464;28;20469;-88
2023/11/29 07:25:03;;;;;;;11.70;6.97;;;;;;;0.79;100.00;99469.81;4973109;28;20393;-88
2023/11/29 07:27:28;;;;;;;11.30;6.80;;;;;;;0.79;100.00;99477.44;4972210;28;20019;-88
2023/11/29 07:29:53;;;;;;;11.30;6.63;;;;;;;0.75;100.00;99469.06;4973397;28;20019;-88
2023/11/29 07:32:22;;;;;;;14.57;8.35;;;;;;;0.78;100.00;99466.44;4973442;28;20086;-88
2023/11/29 07:34:49;;;;;;;20.25;11.00;;;;;;;0.82;100.00;99470.53;4971928;28;20058;-88
2023/11/29 07:37:18;;;;;;;17.67;10.20;;;;;;;0.88;100.00;99472.06;4973432;28;20027;-88
2023/11/29 07:39:44;;;;;;;15.65;10.38;;;;;;;0.82;100.00;99473.06;4973634;28;20023;-88
2023/11/29 07:42:09;;;;;;;15.77;10.23;;;;;;;0.78;100.00;99474.06;4973367;28;20031;-88
2023/11/29 07:44:34;;;;;;;17.40;11.13;;;;;;;0.76;100.00;99469.91;4972896;28;20034;-87
2023/11/29 07:47:00;;;;;;;12.25;8.43;;;;;;;0.71;100.00;99462.44;4973237;28;20023;-88
2023/11/29 07:49:25;;;;;;;17.40;8.73;;;;;;;0.74;100.00;99472.50;4973262;28;20042;-88
2023/11/29 07:51:50;;;;;;;14.90;8.35;;;;;;;0.66;100.00;99473.59;4970460;28;20048;-88
2023/11/29 07:54:16;;;;;;;14.07;8.23;;;;;;;0.64;100.00;99473.69;4972764;28;20058;-88
2023/11/29 07:56:44;;;;;;;13.65;8.25;;;;;;;0.61;100.00;99481.38;4972648;28;20105;-88
2023/11/29 07:59:09;;;;;;;13.95;8.30;;;;;;;0.61;100.00;99481.38;4971411;28;20026;-88
2023/11/29 08:01:35;;;;;;;13.27;8.75;;;;;;;0.62;100.00;99477.97;4972420;28;20039;-88
2023/11/29 08:04:01;;;;;;;16.73;10.18;;;;;;;0.60;100.00;99470.38;4972074;28;20031;-88
2023/11/29 08:06:28;;;;;;;18.73;8.07;;;;;;;0.60;100.00;99484.81;4969977;28;20041;-88
2023/11/29 08:08:56;;;;;;;14.50;7.93;;;;;;;0.39;100.00;99479.53;4964400;28;20027;-89
2023/11/29 08:11:22;;;;;;;19.80;8.07;;;;;;;0.49;100.00;99491.91;4972590;28;20019;-88
2023/11/29 08:13:48;;;;;;;11.63;8.18;;;;;;;0.59;100.00;99483.16;4972290;28;20034;-88
2023/11/29 08:16:14;;;;;;;15.32;8.70;;;;;;;0.68;100.00;99482.84;4972480;28;20106;-88
2023/11/29 08:18:39;;;;;;;12.10;7.30;;;;;;;0.46;100.00;99481.88;4972061;28;20111;-89
2023/11/29 08:21:05;;;;;;;16.48;8.70;;;;;;;0.47;100.00;99475.94;4963823;28;20131;-88
2023/11/29 08:23:30;;;;;;;14.85;8.05;;;;;;;0.61;100.00;99484.75;4969114;28;20477;-89
2023/11/29 08:25:56;;;;;;;18.83;9.20;;;;;;;0.61;100.00;99477.16;4968167;28;20149;-89
2023/11/29 08:28:22;;;;;;;18.75;9.43;;;;;;;0.40;100.00;99472.75;4970224;28;20390;-89
2023/11/29 08:30:47;;;;;;;14.98;9.93;;;;;;;0.54;100.00;99483.28;4971431;28;20019;-90
2023/11/29 08:33:13;;;;;;;14.10;9.02;;;;;;;0.66;100.00;99484.63;4971850;28;20031;-90
2023/11/29 08:35:38;;;;;;;14.82;9.15;;;;;;;0.71;100.00;99472.59;4970117;28;20023;-89
2023/11/29 08:38:04;;;;;;;14.38;8.07;;;;;;;0.88;100.00;99473.72;4968522;28;20548;-90
2023/11/29 08:40:29;;;;;;;13.07;7.97;;;;;;;0.92;100.00;99471.03;4971430;28;20026;-89
2023/11/29 08:42:55;;;;;;;12.40;7.40;;;;;;;0.96;100.00;99466.72;4972769;28;20384;-90
2023/11/29 08:45:21;;;;;;;11.23;6.50;;;;;;;1.03;100.00;99463.09;4972738;28;20082;-89
2023/11/29 08:47:48;;;;;;;10.63;6.63;;;;;;;1.13;100.00;99466.13;4970197;28;20038;-89
2023/11/29 08:50:14;;;;;;;14.88;6.53;;;;;;;1.18;100.00;99469.34;4973355;28;20038;-90
2023/11/29 08:52:43;;;;;;;10.88;7.18;;;;;;;1.22;100.00;99476.81;4972972;28;20023;-90
2023/11/29 08:55:09;;;;;;;17.45;8.35;;;;;;;1.32;100.00;99469.69;4973589;28;20035;-90
2023/11/29 08:57:34;;;;;;;11.07;7.05;;;;;;;1.37;100.00;99461.91;4972670;28;20049;-90
2023/11/29 09:00:01;;;;;;;14.48;7.75;;;;;;;1.45;100.00;99467.53;4968423;28;20489;-90
2023/11/29 09:02:29;;;;;;;14.23;7.90;;;;;;;1.57;100.00;99471.38;4974337;28;20051;-89
2023/11/29 09:04:55;;;;;;;13.48;8.10;;;;;;;1.55;100.00;99470.59;4969044;28;20031;-90
2023/11/29 09:07:20;;;;;;;13.40;7.85;;;;;;;1.63;100.00;99469.41;4972603;28;20033;-90
2023/11/29 09:09:47;;;;;;;17.50;8.00;;;;;;;1.49;100.00;99464.03;4971468;28;20023;-90
2023/11/29 09:12:15;;;;;;;16.17;9.00;;;;;;;1.63;100.00;99463.50;4967289;28;20082;-90
2023/11/29 09:14:41;;;;;;;13.73;8.48;;;;;;;1.75;100.00;99457.13;4973212;28;20114;-89
2023/11/29 09:17:06;;;;;;;14.40;8.55;;;;;;;1.82;100.00;99454.31;4971476;28;20472;-89
2023/11/29 09:19:32;;;;;;;12.77;8.73;;;;;;;1.90;100.00;99451.47;4972742;28;20034;-90
2023/11/29 09:22:01;;;;;;;13.32;8.00;;;;;;;1.96;100.00;99453.81;4972458;28;20030;-90
2023/11/29 09:24:27;;;;;;;11.00;7.13;;;;;;;2.03;100.00;99452.69;4969330;28;20026;-90
2023/11/29 09:26:54;;;;;;;10.52;7.03;;;;;;;2.10;100.00;99443.91;4974456;28;20385;-90
2023/11/29 09:29:20;;;;;;;14.65;7.47;;;;;;;2.19;100.00;99442.72;4973286;28;20030;-89
2023/11/29 09:31:46;;;;;;;10.75;6.68;;;;;;;2.27;100.00;99437.34;4973691;28;20114;-90
2023/11/29 09:34:11;;;;;;;11.48;6.63;;;;;;;2.37;100.00;99448.00;4973980;28;20079;-90
2023/11/29 09:36:37;;;;;;;10.25;7.05;;;;;;;2.47;100.00;99442.47;4972903;28;20090;-90
2023/11/29 09:39:12;;;;;;;11.43;6.50;;;;;;;2.59;100.00;99440.31;4974097;28;20031;-90
2023/11/29 09:41:37;;;;;;;13.07;7.00;;;;;;;2.70;100.00;99445.78;4972296;28;20433;-90
2023/11/29 09:44:03;;;;;;;11.20;7.18;;;;;;;2.78;100.00;99441.22;4970619;28;20031;-91
2023/11/29 09:46:30;;;;;;;15.00;7.05;;;;;;;2.89;100.00;99438.22;4967826;28;20121;-89
2023/11/29 09:48:58;;;;;;;14.35;9.18;;;;;;;2.85;100.00;99440.06;4971837;28;20023;-89
2023/11/29 09:51:23;;;;;;;17.23;9.48;;;;;;;2.87;100.00;99440.00;4973005;28;20027;-89
2023/11/29 09:53:49;;;;;;;14.75;9.10;;;;;;;2.97;100.00;99441.28;4973505;28;20383;-89
2023/11/29 09:56:14;;;;;;;19.38;12.45;;;;;;;2.99;100.00;99430.13;4971897;28;20039;-90
2023/11/29 09:58:39;;;;;;;21.05;12.85;;;;;;;3.02;100.00;99434.25;4974128;28;20050;-89
2023/11/29 10:01:05;;;;;;;18.83;12.02;;;;;;;3.04;100.00;99439.28;4972533;28;20077;-90
2023/11/29 10:03:31;;;;;;;20.98;12.57;;;;;;;3.14;100.00;99454.13;4973126;28;20030;-90
2023/11/29 10:05:56;;;;;;;19.60;12.85;;;;;;;3.25;100.00;99451.13;4973928;28;20488;-90
2023/11/29 10:08:22;;;;;;;18.83;12.98;;;;;;;3.35;100.00;99454.94;4973729;28;20437;-90
2023/11/29 10:10:49;;;;;;;19.95;12.23;;;;;;;3.37;100.00;99445.50;4971918;28;20027;-89
2023/11/29 10:13:18;;;;;;;17.02;11.82;;;;;;;3.65;100.00;99445.09;4973976;28;20277;-90
2023/11/29 10:15:46;;;;;;;19.15;11.57;;;;;;;4.02;100.00;99447.69;4973907;28;20034;-90
2023/11/29 10:18:11;;;;;;;18.00;10.90;;;;;;;4.35;100.00;99445.28;4973034;28;20113;-89
2023/11/29 10:20:36;;;;;;;17.10;10.50;;;;;;;4.58;100.00;99441.59;4972855;28;20106;-90
2023/11/29 10:23:02;;;;;;;16.05;10.68;;;;;;;4.82;100.00;99441.31;4971537;28;20118;-89
2023/11/29 10:25:32;;;;;;;18.65;9.23;;;;;;;4.94;100.00;99443.25;4967732;28;20392;-90
2023/11/29 10:27:58;;;;;;;13.98;9.93;;;;;;;5.18;100.00;99450.59;4967202;28;20023;-90
2023/11/29 10:30:23;;;;;;;15.13;10.20;;;;;;;5.20;100.00;99451.34;4968887;28;20110;-90
2023/11/29 10:32:49;;;;;;;14.55;9.70;;;;;;;4.82;100.00;99448.97;4971490;28;20106;-90
2023/11/29 10:35:18;;;;;;;13.68;10.15;;;;;;;4.70;100.00;99451.22;4970375;28;20038;-90
2023/11/29 10:37:46;;;;;;;18.65;10.77;;;;;;;4.43;100.00;99457.69;4972439;28;20043;-90
2023/11/29 10:40:16;;;;;;;18.95;10.57;;;;;;;4.15;100.00;99443.69;4970581;28;20035;-89
2023/11/29 10:42:49;;;;;;;18.13;11.40;;;;;;;4.35;100.00;99445.28;4972038;28;20018;-90
2023/11/29 10:45:17;;;;;;;14.93;9.23;;;;;;;4.43;100.00;99434.69;4969621;28;20023;-90
2023/11/29 10:48:02;;;;;;;18.20;10.85;;;;;;;4.52;100.00;99436.81;4969895;28;20127;-90
2023/11/29 10:50:30;;;;;;;17.63;11.60;;;;;;;4.56;100.00;99433.22;4970931;28;20067;-90
2023/11/29 10:52:56;;;;;;;15.05;10.57;;;;;;;4.58;100.00;99418.59;4971261;28;20035;-90
2023/11/29 10:55:23;;;;;;;17.48;9.63;;;;;;;4.69;100.00;99424.03;4970140;28;20058;-90
2023/11/29 10:57:57;;;;;;;14.70;10.85;;;;;;;4.57;100.00;99424.63;4971396;28;20039;-90
2023/11/29 11:00:25;;;;;;;14.05;8.70;;;;;;;4.42;100.00;99416.00;4967386;28;20035;-89
2023/11/29 11:02:51;;;;;;;14.65;7.72;;;;;;;4.45;100.00;99409.91;4971051;28;20023;-90
2023/11/29 11:05:21;;;;;;;11.80;8.00;;;;;;;4.33;100.00;99410.50;4971096;28;20432;-90
2023/11/29 11:07:48;;;;;;;13.95;7.97;;;;;;;4.43;100.00;99416.81;4971771;28;20042;-90
2023/11/29 11:10:15;;;;;;;13.10;8.90;;;;;;;4.45;100.00;99409.91;4969223;28;20477;-90
2023/11/29 11:12:42;;;;;;;16.67;10.98;;;;;;;4.32;100.00;99404.56;4971207;28;20031;-91
2023/11/29 11:15:15;;;;;;;15.82;10.52;;;;;;;4.44;100.00;99408.25;4971321;28;20026;-90
2023/11/29 11:17:43;;;;;;;16.08;10.00;;;;;;;4.59;100.00;99404.94;4971356;28;20034;-90
2023/11/29 11:20:10;;;;;;;16.63;10.90;;;;;;;4.69;100.00;99406.13;4971037;28;20045;-90